• Join FlightAware (Why Join?)
  • Login
  • US Flag 
01:06AM EDT


 

Airport Tracker/Info


-or-


 

Live Flight TrackerFlight Track Log ✈ N6489W ✈ 02-May-2013 ✈ KVLL - KPNE

Flight Track Log - Related Links

Times and Time Zones

All times are in EDT time to prevent confusion due to time zone crossing. See the N6489W flight status page for this flight to view local times or setup timezone preferences in your user account.

Time Position Orientation Groundspeed Altitude Reporting Facility
EDT Latitude Longitude Course Direction KTS MPH feet Rate Location/Type
04:17PM 42.5403 -83.1336 113° Southeast 103 119 1,800  Level Cleveland Center
04:19PM 42.5267 -83.0906 113° Southeast 117 135 2,400 480 Climbing Cleveland Center
04:19PM 42.5231 -83.0708 104° East 121 139 2,600 600 Climbing Cleveland Center
04:20PM 42.5153 -83.0394 109° East 119 137 3,100 480 Climbing Cleveland Center
04:20PM 42.5133 -83.0311 108° East 121 139 3,100 480 Level Cleveland Center
04:21PM 42.5056 -82.9997 109° East 120 138 3,600 600 Climbing Cleveland Center
04:21PM 42.4997 -82.9856 119° Southeast 121 139 3,700 480 Climbing Cleveland Center
04:22PM 42.4961 -82.9572 100° East 124 143 4,100 480 Climbing Cleveland Center
04:22PM 42.4922 -82.9400 107° East 121 139 4,200 540 Climbing Cleveland Center
04:23PM 42.4867 -82.9117 105° East 128 147 4,600 600 Climbing Cleveland Center
04:23PM 42.4808 -82.8917 112° Southeast 126 145 4,800 300 Climbing Cleveland Center
04:24PM 42.4669 -82.8519 115° Southeast 131 151 5,100 120 Climbing Cleveland Center
04:25PM 42.4556 -82.7981 106° East 131 151 5,100  Level Cleveland Center
04:26PM 42.4419 -82.7469 110° East 131 151 5,100 60 Level Cleveland Center
04:27PM 42.4303 -82.6958 107° East 131 151 5,300 300 Climbing Cleveland Center
04:28PM 42.4167 -82.6447 110° East 131 151 5,700 300 Climbing Cleveland Center
04:29PM 42.4050 -82.5936 107° East 131 151 6,000 480 Climbing Cleveland Center
04:30PM 42.3933 -82.5456 108° East 136 157 6,700 600 Climbing Cleveland Center
04:31PM 42.3797 -82.4972 111° Southeast 136 157 7,300 540 Climbing Cleveland Center
04:32PM 42.3658 -82.4492 111° Southeast 131 151 7,800 540 Climbing Cleveland Center
04:33PM 42.3519 -82.4039 113° Southeast 131 151 8,400 540 Climbing Cleveland Center
04:34PM 42.3361 -82.3528 113° Southeast 131 151 8,900 540 Climbing Cleveland Center
04:35PM 42.3244 -82.3047 108° East 131 151 9,500 600 Climbing Cleveland Center
04:36PM 42.3083 -82.2592 116° Southeast 131 151 10,100 540 Climbing Cleveland Center
04:37PM 42.2944 -82.2111 111° Southeast 131 151 10,600 480 Climbing Cleveland Center
04:38PM 42.2825 -82.1633 109° East 131 151 11,100 540 Climbing Cleveland Center
04:39PM 42.2667 -82.1094 112° Southeast 131 151 11,700 300 Climbing Cleveland Center
04:41PM 42.2365 -82.0359 111° Southeast  Level FlightAware Approximate
04:44PM 42.1928 -81.8528 110° East 153 176 13,100  Level Cleveland Center
04:45PM 42.1767 -81.7992 111° Southeast 159 183 13,100  Level Cleveland Center
04:46PM 42.1706 -81.7749 111° Southeast  Level FlightAware Approximate
04:46PM 42.1606 -81.7400 110° East 154 177 13,100  Level Cleveland Center
04:47PM 42.1422 -81.6864 115° Southeast 154 177 13,100  Level Cleveland Center
04:48PM 42.1286 -81.6451 110° East  Level FlightAware Approximate
04:48PM 42.1261 -81.6303 111° Southeast 154 177 13,100  Level Cleveland Center
04:49PM 42.1132 -81.5893 110° East  Level FlightAware Approximate
04:49PM 42.1078 -81.5739 114° Southeast 154 177 13,400  Level Cleveland Center
04:50PM 42.0894 -81.5178 114° Southeast 154 177 13,900 420 Climbing Cleveland Center
04:51PM 42.0733 -81.4642 112° Southeast 154 177 14,300 360 Climbing Cleveland Center
04:52PM 42.0569 -81.4136 114° Southeast 154 177 14,700 360 Climbing Cleveland Center
04:53PM 42.0590 -81.3865 111° Southeast  Level FlightAware Approximate
04:53PM 42.0408 -81.3575 111° Southeast 154 177 15,100  Level Cleveland Center
04:54PM 42.0264 -81.3014 109° East 154 177 15,500 300 Climbing Cleveland Center
04:55PM 42.0103 -81.2483 112° Southeast 154 177 15,800 300 Climbing Cleveland Center
04:56PM 41.9939 -81.1894 111° Southeast 154 177 16,200 300 Climbing Cleveland Center
04:57PM 41.9775 -81.1361 112° Southeast 159 183 16,500 300 Climbing Cleveland Center
04:58PM 41.9631 -81.0831 110° East 159 183 16,800 240 Climbing Cleveland Center
04:59PM 41.9467 -81.0269 111° Southeast 159 183 17,000 60 Climbing Cleveland Center
05:00PM 41.9281 -80.9683 113° Southeast 159 183 17,000  Level Cleveland Center
05:01PM 41.9117 -80.9069 110° East 164 189 17,000  Level Cleveland Center
05:02PM 41.8931 -80.8481 113° Southeast 169 194 17,000  Level Cleveland Center
05:03PM 41.8744 -80.7867 112° Southeast 174 200 17,000  Level Cleveland Center
05:04PM 41.8514 -80.7197 115° Southeast 174 200 17,000  Level Cleveland Center
05:05PM 41.8328 -80.6611 113° Southeast 174 200 17,000  Level Cleveland Center
05:06PM 41.8161 -80.6053 112° Southeast 169 194 17,000  Level Cleveland Center
05:07PM 41.7994 -80.5442 110° East 169 194 17,000  Level Cleveland Center
05:08PM 41.7806 -80.4858 113° Southeast 169 194 17,000  Level Cleveland Center
05:09PM 41.7619 -80.4244 112° Southeast 169 194 17,000  Level Cleveland Center
05:10PM 41.7472 -80.3661 109° East 169 194 17,000  Level Cleveland Center
05:11PM 41.7283 -80.3078 113° Southeast 169 194 17,000  Level Cleveland Center
05:12PM 41.7136 -80.2550 110° East 169 194 17,000  Level Cleveland Center
05:13PM 41.6989 -80.1939 108° East 169 194 17,000  Level Cleveland Center
05:14PM 41.6797 -80.1383 115° Southeast 169 194 17,000  Level Cleveland Center
05:15PM 41.6628 -80.0717 109° East 169 194 17,000  Level Cleveland Center
05:16PM 41.6458 -80.0108 110° East 169 194 17,000  Level Cleveland Center
05:17PM 41.6269 -79.9525 113° Southeast 169 194 17,000  Level Cleveland Center
05:18PM 41.6097 -79.8917 111° Southeast 169 194 17,000  Level Cleveland Center
05:19PM 41.5928 -79.8364 112° Southeast 169 194 17,000  Level Cleveland Center
05:20PM 41.5756 -79.7753 111° Southeast 169 194 17,000  Level Cleveland Center
05:21PM 41.5564 -79.7147 113° Southeast 174 200 17,000  Level Cleveland Center
05:22PM 41.5394 -79.6567 111° Southeast 174 200 17,000  Level Cleveland Center
05:23PM 41.5200 -79.5986 114° Southeast 174 200 17,100  Climbing Cleveland Center
05:24PM 41.5028 -79.5406 112° Southeast 174 200 17,100  Level Cleveland Center
05:25PM 41.4858 -79.4883 113° Southeast 174 200 17,100  Level Cleveland Center
05:26PM 41.4686 -79.4303 112° Southeast 174 200 17,100  Level Cleveland Center
05:27PM 41.4492 -79.3725 114° Southeast 174 200 17,100  Level Cleveland Center
05:28PM 41.4319 -79.3119 111° Southeast 174 200 17,100  Level Cleveland Center
05:29PM 41.4144 -79.2486 110° East 174 200 17,100  Level Cleveland Center
05:30PM 41.3928 -79.1853 114° Southeast 174 200 17,100  Level Cleveland Center
05:31PM 41.3756 -79.1275 112° Southeast 174 200 17,100  Level Cleveland Center
05:32PM 41.3558 -79.0728 116° Southeast 169 194 17,100  Level Cleveland Center
05:33PM 41.3386 -79.0150 112° Southeast 169 194 17,100  Level Cleveland Center
05:34PM 41.3211 -78.9603 113° Southeast 169 194 17,100  Level Cleveland Center
05:35PM 41.3033 -78.8969 110° East 169 194 17,100  Level Cleveland Center
05:36PM 41.2881 -78.8422 110° East 169 194 17,100  Level Cleveland Center
05:37PM 41.2725 -78.7847 110° East 169 194 17,100  Level Cleveland Center
05:39PM 41.2286 -78.6506 113° Southeast 165 190 17,100  Level New York Center
05:40PM 41.2117 -78.5933 111° Southeast 165 190 17,100  Level New York Center
05:41PM 41.1903 -78.5358 116° Southeast 165 190 17,100  Level New York Center
05:42PM 41.1731 -78.4814 113° Southeast 165 190 17,100  Level New York Center
05:43PM 41.1517 -78.4239 116° Southeast 165 190 17,100  Level New York Center
05:44PM 41.1325 -78.3667 114° Southeast 165 190 17,100  Level New York Center
05:45PM 41.1153 -78.3097 112° Southeast 165 190 17,100  Level New York Center
05:46PM 41.0958 -78.2550 115° Southeast 165 190 17,100  Level New York Center
05:47PM 41.0786 -78.1981 112° Southeast 165 190 17,100  Level New York Center
05:48PM 41.0653 -78.1417 107° East 165 190 17,100  Level New York Center
05:49PM 41.0544 -78.0825 104° East 160 184 17,100  Level New York Center
05:50PM 41.0436 -78.0236 104° East 160 184 17,100  Level New York Center
05:51PM 41.0303 -77.9672 107° East 160 184 17,100  Level New York Center
05:52PM 41.0172 -77.9081 106° East 160 184 17,100  Level New York Center
05:53PM 41.0058 -77.8519 105° East 170 196 17,100  Level New York Center
05:54PM 40.9931 -77.7900 105° East 170 196 17,100  Level New York Center
05:55PM 40.9800 -77.7281 106° East 170 196 17,100  Level New York Center
05:56PM 40.9669 -77.6661 106° East 170 196 17,100  Level New York Center
05:57PM 40.9539 -77.6044 106° East 170 196 17,100  Level New York Center
05:58PM 40.9406 -77.5428 106° East 175 201 17,100  Level New York Center
05:59PM 40.9275 -77.4808 106° East 175 201 17,100  Level New York Center
06:00PM 40.9142 -77.4219 107° East 169 194 17,100  Level New York Center
06:01PM 40.9028 -77.3631 104° East 169 194 17,100  Level New York Center
06:02PM 40.8856 -77.3011 110° East 169 194 17,100  Level New York Center
06:03PM 40.8742 -77.2397 104° East 169 194 17,100  Level New York Center
06:04PM 40.8608 -77.1808 107° East 169 194 17,100  Level New York Center
06:06PM 40.8472 -77.1217 107° East 169 194 17,100  Level New York Center
06:06PM 40.8400 -77.0608 99° East 169 194 17,100 -60 Level New York Center
06:07PM 40.8328 -77.0025 99° East 164 189 17,000 -300 Descending New York Center
06:08PM 40.8153 -76.9378 110° East 169 194 16,500 -360 Descending New York Center
06:09PM 40.7975 -76.8814 113° Southeast 175 201 16,300 -300 Descending New York Center
06:10PM 40.7781 -76.8139 111° Southeast 175 201 16,000 -540 Descending New York Center
06:11PM 40.7583 -76.7492 112° Southeast 182 209 15,300 -600 Descending New York Center
06:12PM 40.7422 -76.6928 111° Southeast 182 209 14,900 -600 Descending New York Center
06:13PM 40.7208 -76.6225 112° Southeast 182 209 14,200 -660 Descending New York Center
06:14PM 40.7069 -76.5639 107° East 182 209 13,600 -1,620 Descending New York Center
06:15PM 40.6875 -76.4967 111° Southeast 182 209 11,000 -3,300 Descending New York Center
06:17PM 40.6711 -76.4431 112° Southeast 177 204 7,000  Descending New York Center
06:17PM 40.6556 -76.3761 107° East 177 204 11,100 1,800 Climbing New York Center
06:18PM 40.6394 -76.3203 111° Southeast 177 204 10,600 -480 Descending New York Center
06:19PM 40.6258 -76.2589 106° East 177 204 10,200 -720 Descending New York Center
06:20PM 40.6100 -76.1947 108° East 172 198 9,200 -540 Descending New York Center
06:21PM 40.5978 -76.1392 106° East 166 191 9,200 -180 Level New York Center
06:23PM 40.5836 -76.0861 109° East 155 178 8,900 -420 Descending New York Center
06:23PM 40.5714 -76.0358 108° East 155 178 8,400 -420 Descending New York Center
06:24PM 40.5592 -75.9778 105° East 155 178 8,100 -420 Descending New York Center
06:25PM 40.5472 -75.9194 105° East 155 178 7,600 -420 Descending New York Center
06:26PM 40.5536 -75.8681 81° East 144 166 7,300 -300 Descending New York Center
06:27PM 40.5619 -75.8194 77° East 144 166 7,100 -120 Descending New York Center
06:28PM 40.5683 -75.7681 81° East 144 166 7,100  Level New York Center
06:29PM 40.5539 -75.7178 111° Southeast 134 154 7,200  Climbing New York Center
06:30PM 40.5261 -75.6803 134° Southeast 134 154 7,200  Level New York Center
06:31PM 40.5006 -75.6431 132° Southeast 139 160 7,200 -60 Level New York Center
06:33PM 40.4667 -75.5833 127° Southeast 142 163 7,100  Descending Philadelphia TRACON
06:34PM 40.4333 -75.5500 143° Southeast 139 160 7,200  Climbing Philadelphia TRACON
06:35PM 40.4167 -75.5167 123° Southeast 141 162 7,100 -120 Descending Philadelphia TRACON
06:36PM 40.3833 -75.4667 131° Southeast 135 155 7,000 -300 Descending Philadelphia TRACON
06:37PM 40.3667 -75.4333 123° Southeast 153 176 6,600 -600 Descending Philadelphia TRACON
06:38PM 40.3333 -75.3833 131° Southeast 152 175 6,000 -600 Descending Philadelphia TRACON
06:39PM 40.3000 -75.3500 143° Southeast 154 177 5,400 -660 Descending Philadelphia TRACON
06:40PM 40.2667 -75.3000 131° Southeast 152 175 4,700 -660 Descending Philadelphia TRACON
06:41PM 40.2500 -75.2667 123° Southeast 156 180 4,100 -660 Descending Philadelphia TRACON
06:42PM 40.2167 -75.2167 131° Southeast 156 180 3,400 -660 Descending Philadelphia TRACON
06:43PM 40.2000 -75.1833 123° Southeast 150 173 2,800 -600 Descending Philadelphia TRACON
06:44PM 40.1667 -75.1333 131° Southeast 148 170 2,200 -720 Descending Philadelphia TRACON
06:45PM 40.1500 -75.0833 114° Southeast 154 177 1,400 -480 Descending Philadelphia TRACON
06:46PM 40.1167 -75.0500 143° Southeast 108 124 1,400 -240 Level Philadelphia TRACON
06:47PM 40.1000 -75.0333 143° Southeast 95 109 1,000 -480 Descending Philadelphia TRACON
06:49PM 40.0819 -75.0106 134° Southeast  Level Estimated
06:56PM 40.0819 -75.0106 134° Southeast  Level Estimated